createdAt,value
2023-04-21T00:01:41.809Z,98230.81
2023-04-21T00:04:28.151Z,98233.13
2023-04-21T00:07:13.802Z,98232.13
2023-04-21T00:09:58.903Z,98228.16
2023-04-21T00:12:44.204Z,98221.94
2023-04-21T00:15:29.639Z,98217.66
2023-04-21T00:18:15.354Z,98224.91
2023-04-21T00:21:01.202Z,98216.06
2023-04-21T00:23:46.423Z,98192.19
2023-04-21T00:26:31.774Z,98214.13
2023-04-21T00:29:18.061Z,98212.84
2023-04-21T00:32:04.052Z,98222.34
2023-04-21T00:34:49.589Z,98220.41
2023-04-21T00:37:34.871Z,98220.38
2023-04-21T00:40:20.087Z,98198.94
2023-04-21T00:43:08.249Z,98214.16
2023-04-21T00:45:53.355Z,98216.59
2023-04-21T00:48:38.753Z,98210.72
2023-04-21T00:51:24.806Z,98220.69
2023-04-21T00:54:11.959Z,98202.69
2023-04-21T00:56:57.190Z,98210.03
2023-04-21T00:59:42.729Z,98211.88
2023-04-21T01:02:28.262Z,98207.13
2023-04-21T01:05:13.651Z,98210.56
2023-04-21T01:07:59.163Z,98203.69
2023-04-21T01:10:44.716Z,98209.59
2023-04-21T01:13:30.586Z,98209.59
2023-04-21T01:16:19.547Z,98198.94
2023-04-21T01:19:04.706Z,98180.13
2023-04-21T01:21:49.989Z,98210.41
2023-04-21T01:24:40.057Z,98218.28
2023-04-21T01:27:25.268Z,98199.09
2023-04-21T01:30:12.515Z,98204.34
2023-04-21T01:32:58.090Z,98165.38
2023-04-21T01:35:44.953Z,98205.81
2023-04-21T01:38:30.606Z,98206.13
2023-04-21T01:41:18.408Z,98179.28
2023-04-21T01:44:03.769Z,98205.81
2023-04-21T01:46:49.621Z,98219.22
2023-04-21T01:49:36.758Z,98209.25
2023-04-21T01:52:22.076Z,98205.97
2023-04-21T01:55:07.771Z,98204.69
2023-04-21T01:57:53.203Z,98203.31
2023-04-21T02:00:38.361Z,98206.44
2023-04-21T02:03:23.814Z,98202.53
2023-04-21T02:06:09.036Z,98207.59
2023-04-21T02:08:54.525Z,98208.56
2023-04-21T02:11:39.890Z,98213.81
2023-04-21T02:14:26.241Z,98203.63
2023-04-21T02:17:11.643Z,98160.38
2023-04-21T02:19:56.851Z,98133.19
2023-04-21T02:22:42.570Z,98197.94
2023-04-21T02:25:27.991Z,98200.22
2023-04-21T02:28:13.567Z,98201.22
2023-04-21T02:30:58.922Z,98194.34
2023-04-21T02:33:45.056Z,98144.53
2023-04-21T02:36:30.573Z,98207.59
2023-04-21T02:39:16.641Z,98203.38
2023-04-21T02:42:02.268Z,98205.97
2023-04-21T02:44:47.556Z,98203.69
2023-04-21T02:47:32.756Z,98201.06
2023-04-21T02:50:18.414Z,98192.72
2023-04-21T02:53:03.860Z,98153.25
2023-04-21T02:55:49.436Z,98203.69
2023-04-21T02:58:37.972Z,98200.56
2023-04-21T03:01:23.453Z,98180.09
2023-04-21T03:04:08.850Z,98171.25
2023-04-21T03:06:56.613Z,98198.44
2023-04-21T03:09:41.755Z,98197.28
2023-04-21T03:12:27.303Z,98193.84
2023-04-21T03:15:12.392Z,98195.28
2023-04-21T03:17:57.706Z,98188.56
2023-04-21T03:20:44.466Z,98204.13
2023-04-21T03:23:30.320Z,98199.06
2023-04-21T03:26:15.720Z,98201.50
2023-04-21T03:29:01.190Z,98197.75
2023-04-21T03:31:46.324Z,98190.84
2023-04-21T03:34:31.454Z,98193.47
2023-04-21T03:37:19.462Z,98166.16
2023-04-21T03:40:05.327Z,98198.91
2023-04-21T03:42:50.672Z,98201.38
2023-04-21T03:45:37.438Z,98201.88
2023-04-21T03:48:22.945Z,98202.69
2023-04-21T03:51:08.384Z,98196.78
2023-04-21T03:53:53.920Z,98186.31
2023-04-21T03:56:39.356Z,98209.09
2023-04-21T03:59:24.861Z,98203.06
2023-04-21T04:02:10.465Z,98203.53
2023-04-21T04:04:55.908Z,98194.00
2023-04-21T04:07:41.670Z,98201.38
2023-04-21T04:10:26.983Z,98197.13
2023-04-21T04:13:12.198Z,98121.41
2023-04-21T04:15:57.825Z,98206.28
2023-04-21T04:18:42.901Z,98194.19
2023-04-21T04:21:28.326Z,98172.09
2023-04-21T04:24:14.035Z,98194.03
2023-04-21T04:27:00.261Z,98182.06
2023-04-21T04:29:46.559Z,98185.81
2023-04-21T04:32:34.221Z,98171.56
2023-04-21T04:35:20.486Z,98190.56
2023-04-21T04:38:06.415Z,98172.16
2023-04-21T04:40:55.240Z,98196.41
2023-04-21T04:43:40.325Z,98193.09
2023-04-21T04:46:25.810Z,98193.91
2023-04-21T04:49:11.055Z,98185.84
2023-04-21T04:51:56.891Z,98199.88
2023-04-21T04:54:42.553Z,98208.44
2023-04-21T04:57:28.036Z,98211.56
2023-04-21T05:00:13.673Z,98204.00
2023-04-21T05:02:59.003Z,98214.84
2023-04-21T05:05:44.188Z,98218.94
2023-04-21T05:08:29.450Z,98101.09
2023-04-21T05:11:14.677Z,98177.28
2023-04-21T05:14:00.055Z,98218.88
2023-04-21T05:16:45.423Z,98226.22
2023-04-21T05:19:30.553Z,98223.97
2023-04-21T05:22:15.890Z,98209.56
2023-04-21T05:25:05.451Z,98222.97
2023-04-21T05:27:50.672Z,98222.66
2023-04-21T05:30:36.218Z,98224.66
2023-04-21T05:33:21.596Z,98224.13
2023-04-21T05:36:08.323Z,98223.19
2023-04-21T05:38:53.618Z,98188.78
2023-04-21T05:41:39.221Z,98220.22
2023-04-21T05:44:24.703Z,98229.72
2023-04-21T05:47:10.613Z,98207.78
2023-04-21T05:49:56.150Z,98234.31
2023-04-21T05:52:41.430Z,98236.25
2023-04-21T05:55:27.367Z,98226.50
2023-04-21T05:58:12.450Z,98229.38
2023-04-21T06:00:58.036Z,98227.91
2023-04-21T06:03:43.658Z,98222.16
2023-04-21T06:06:29.220Z,98212.94
2023-04-21T06:09:15.417Z,98206.78
2023-04-21T06:12:00.616Z,98213.78
2023-04-21T06:14:45.921Z,98214.00
2023-04-21T06:17:31.162Z,98211.03
2023-04-21T06:20:16.368Z,98205.97
2023-04-21T06:23:01.904Z,98206.31
2023-04-21T06:25:47.501Z,98202.16
2023-04-21T06:28:34.185Z,98205.09
2023-04-21T06:31:21.130Z,98201.28
2023-04-21T06:34:06.560Z,98190.78
2023-04-21T06:36:52.567Z,98192.88
2023-04-21T06:39:37.746Z,98200.31
2023-04-21T06:42:23.163Z,98196.53
2023-04-21T06:45:09.277Z,98177.72
2023-04-21T06:47:54.762Z,98197.78
2023-04-21T06:50:40.001Z,98200.38
2023-04-21T06:53:25.261Z,98195.41
2023-04-21T06:56:10.578Z,98166.56
2023-04-21T06:58:56.477Z,98199.41
2023-04-21T07:01:41.882Z,98192.75
2023-04-21T07:04:27.300Z,98193.91
2023-04-21T07:07:12.564Z,98187.59
2023-04-21T07:09:57.954Z,98148.19
2023-04-21T07:12:43.174Z,98192.09
2023-04-21T07:15:29.889Z,98171.13
2023-04-21T07:18:15.109Z,98192.22
2023-04-21T07:21:00.647Z,98191.19
2023-04-21T07:23:45.932Z,98182.81
2023-04-21T07:26:32.135Z,98195.00
2023-04-21T07:29:20.212Z,98183.78
2023-04-21T07:32:06.034Z,98175.28
2023-04-21T07:34:51.527Z,98173.69
2023-04-21T07:37:38.013Z,98195.81
2023-04-21T07:40:23.340Z,98186.97
2023-04-21T07:43:08.724Z,98192.34
2023-04-21T07:45:54.267Z,98186.75
2023-04-21T07:48:40.792Z,98182.78
2023-04-21T07:51:26.582Z,98182.88
2023-04-21T07:54:12.254Z,98181.44
2023-04-21T07:56:57.701Z,98166.91
2023-04-21T07:59:44.287Z,98159.47
2023-04-21T08:02:30.213Z,98138.03
2023-04-21T08:05:16.324Z,98185.53
2023-04-21T08:08:02.089Z,98163.84
2023-04-21T08:10:48.003Z,98173.44
2023-04-21T08:13:33.440Z,98184.09
2023-04-21T08:16:18.991Z,98177.97
2023-04-21T08:19:04.535Z,98174.47
2023-04-21T08:21:49.940Z,98179.13
2023-04-21T08:24:35.321Z,98179.47
2023-04-21T08:27:20.444Z,98181.97
2023-04-21T08:30:06.872Z,98189.66
2023-04-21T08:32:52.136Z,98167.19
2023-04-21T08:35:38.423Z,98168.84
2023-04-21T08:38:24.740Z,98164.38
2023-04-21T08:41:10.444Z,98166.41
2023-04-21T08:43:55.716Z,98149.09
2023-04-21T08:46:42.616Z,98122.81
2023-04-21T08:49:30.563Z,98163.97
2023-04-21T08:52:16.042Z,98161.31
2023-04-21T08:55:01.631Z,98156.63
2023-04-21T08:57:46.909Z,98166.19
2023-04-21T09:00:32.127Z,98163.13
2023-04-21T09:03:26.268Z,98158.66
2023-04-21T09:06:12.700Z,98163.75
2023-04-21T09:08:58.301Z,98163.97
2023-04-21T09:11:43.606Z,98160.47
2023-04-21T09:14:32.353Z,98152.13
2023-04-21T09:17:18.961Z,98158.72
2023-04-21T09:20:13.194Z,98154.09
2023-04-21T09:22:58.762Z,98159.03
2023-04-21T09:25:45.382Z,98141.00
2023-04-21T09:28:31.649Z,98139.16
2023-04-21T09:31:19.145Z,98136.94
2023-04-21T09:34:22.103Z,98134.88
2023-04-21T09:37:07.265Z,98124.31
2023-04-21T09:40:03.363Z,98113.66
2023-04-21T09:42:49.763Z,98122.47
2023-04-21T09:45:40.089Z,98114.06
2023-04-21T09:48:31.634Z,98123.44
2023-04-21T09:54:29.733Z,98128.56
2023-04-21T09:57:21.322Z,98105.47
2023-04-21T10:00:08.575Z,98119.31
2023-04-21T10:02:55.255Z,98109.09
2023-04-21T10:05:42.789Z,98106.13
2023-04-21T10:08:28.704Z,98068.81
2023-04-21T10:11:14.510Z,98093.09
2023-04-21T10:14:00.305Z,98102.56
2023-04-21T10:16:56.371Z,98101.81
2023-04-21T10:19:55.510Z,98089.75
2023-04-21T10:22:42.816Z,98089.94
2023-04-21T10:25:29.706Z,98080.63
2023-04-21T10:28:18.410Z,98089.34
2023-04-21T10:31:18.115Z,98084.34
2023-04-21T10:34:06.353Z,98078.13
2023-04-21T10:37:10.081Z,98073.22
2023-04-21T10:39:56.039Z,98028.13
2023-04-21T10:42:41.450Z,98072.81
2023-04-21T10:45:26.603Z,98051.00
2023-04-21T10:48:13.890Z,98069.44
2023-04-21T10:50:59.159Z,98077.94
2023-04-21T10:53:44.580Z,98075.28
2023-04-21T10:56:33.288Z,98069.25
2023-04-21T10:59:20.276Z,98073.56
2023-04-21T11:02:08.811Z,98058.13
2023-04-21T11:04:55.751Z,98056.72
2023-04-21T11:07:41.186Z,98056.56
2023-04-21T11:10:26.865Z,98058.66
2023-04-21T11:13:12.075Z,98047.44
2023-04-21T11:16:07.700Z,98044.44
2023-04-21T11:18:53.357Z,98052.19
2023-04-21T11:21:38.770Z,98048.50
2023-04-21T11:24:24.770Z,98039.50
2023-04-21T11:27:10.239Z,98054.41
2023-04-21T11:29:56.216Z,98029.13
2023-04-21T11:32:42.750Z,97979.88
2023-04-21T11:35:28.238Z,97972.94
2023-04-21T11:38:13.876Z,98038.53
2023-04-21T11:40:59.350Z,98031.47
2023-04-21T11:43:46.100Z,97988.66
2023-04-21T11:46:31.588Z,98016.31
2023-04-21T11:49:17.119Z,98030.53
2023-04-21T11:52:02.705Z,98010.19
2023-04-21T11:54:48.616Z,98019.78
2023-04-21T11:57:34.225Z,98015.03
2023-04-21T12:00:20.101Z,98009.16
2023-04-21T12:03:09.195Z,98015.97
2023-04-21T12:05:56.871Z,97968.59
2023-04-21T12:08:42.129Z,98004.28
2023-04-21T12:11:29.463Z,97997.03
2023-04-21T12:14:15.754Z,97996.25
2023-04-21T12:17:01.342Z,97966.81
2023-04-21T12:19:47.282Z,97968.59
2023-04-21T12:22:32.456Z,97997.41
2023-04-21T12:25:17.961Z,98012.34
2023-04-21T12:28:03.825Z,97980.03
2023-04-21T12:30:48.973Z,97919.50
2023-04-21T12:33:34.663Z,97982.41
2023-04-21T12:36:20.072Z,97989.16
2023-04-21T12:39:05.765Z,97985.16
2023-04-21T12:41:51.302Z,97906.09
2023-04-21T12:44:38.766Z,97958.72
2023-04-21T12:47:24.011Z,97970.09
2023-04-21T12:50:09.715Z,97943.75
2023-04-21T12:52:55.058Z,97904.97
2023-04-21T12:55:44.652Z,97958.84
2023-04-21T12:58:35.230Z,97970.56
2023-04-21T13:01:24.370Z,97974.78
2023-04-21T13:04:10.160Z,97937.91
2023-04-21T13:06:55.784Z,97951.63
2023-04-21T13:09:41.204Z,97950.19
2023-04-21T13:12:26.804Z,97955.41
2023-04-21T13:15:12.110Z,97955.25
2023-04-21T13:17:57.322Z,97947.56
2023-04-21T13:20:42.710Z,97869.84
2023-04-21T13:23:29.365Z,97944.63
2023-04-21T13:26:14.956Z,97940.00
2023-04-21T13:29:00.131Z,97937.09
2023-04-21T13:31:45.555Z,97933.78
2023-04-21T13:34:32.888Z,97928.25
2023-04-21T13:37:18.944Z,97926.25
2023-04-21T13:40:05.577Z,97928.22
2023-04-21T13:42:51.007Z,97916.66
2023-04-21T13:45:36.680Z,97902.34
2023-04-21T13:48:22.180Z,97902.16
2023-04-21T13:51:07.652Z,97907.84
2023-04-21T13:53:53.013Z,97898.78
2023-04-21T13:56:38.362Z,97847.06
2023-04-21T13:59:23.782Z,97893.13
2023-04-21T14:02:09.138Z,97892.41
2023-04-21T14:04:55.001Z,97886.16
2023-04-21T14:07:40.381Z,97879.91
2023-04-21T14:10:26.039Z,97884.69
2023-04-21T14:13:23.105Z,97869.16
2023-04-21T14:16:16.911Z,97875.75
2023-04-21T14:19:02.633Z,97872.56
2023-04-21T14:21:47.771Z,97851.88
2023-04-21T14:24:33.030Z,97862.88
2023-04-21T14:27:18.258Z,97860.16
2023-04-21T14:30:04.324Z,97863.59
2023-04-21T14:32:49.798Z,97861.81
2023-04-21T14:35:37.741Z,97844.78
2023-04-21T14:38:23.212Z,97835.09
2023-04-21T14:41:08.753Z,97836.59
2023-04-21T14:43:54.176Z,97841.72
2023-04-21T14:46:39.746Z,97821.66
2023-04-21T14:49:25.235Z,97832.47
2023-04-21T14:52:10.951Z,97832.19
2023-04-21T14:54:56.189Z,97834.88
2023-04-21T14:57:41.787Z,97813.75
2023-04-21T15:00:27.275Z,97822.16
2023-04-21T15:03:12.704Z,97817.91
2023-04-21T15:05:58.369Z,97820.75
2023-04-21T15:08:44.761Z,97821.84
2023-04-21T15:11:30.089Z,97809.34
2023-04-21T15:14:15.735Z,97809.78
2023-04-21T15:17:00.930Z,97810.66
2023-04-21T15:19:46.929Z,97807.72
2023-04-21T15:22:32.587Z,97784.97
2023-04-21T15:25:18.198Z,97756.19
2023-04-21T15:28:03.951Z,97733.59
2023-04-21T15:30:49.766Z,97793.84
2023-04-21T15:33:35.452Z,97791.50
2023-04-21T15:36:21.232Z,97787.16
2023-04-21T15:39:06.258Z,97797.00
2023-04-21T15:41:51.854Z,97781.72
2023-04-21T15:44:37.277Z,97787.88
2023-04-21T15:47:23.226Z,97785.09
2023-04-21T15:50:09.226Z,97783.13
2023-04-21T15:52:54.798Z,97777.28
2023-04-21T15:55:39.883Z,97691.97
2023-04-21T15:58:25.378Z,97757.91
2023-04-21T16:01:11.095Z,97771.25
2023-04-21T16:03:56.577Z,97777.78
2023-04-21T16:06:42.358Z,97775.22
2023-04-21T16:09:28.023Z,97776.31
2023-04-21T16:12:13.121Z,97766.88
2023-04-21T16:15:04.194Z,97761.31
2023-04-21T16:18:01.704Z,97749.94
2023-04-21T16:20:46.867Z,97702.31
2023-04-21T16:23:32.283Z,97742.50
2023-04-21T16:26:17.808Z,97761.66
2023-04-21T16:29:03.261Z,97707.16
2023-04-21T16:31:48.458Z,97767.97
2023-04-21T16:34:33.909Z,97755.16
2023-04-21T16:37:20.477Z,97755.94
2023-04-21T16:40:07.495Z,97756.09
2023-04-21T16:42:52.889Z,97755.63
2023-04-21T16:45:38.685Z,97758.84
2023-04-21T16:48:24.009Z,97745.41
2023-04-21T16:51:09.135Z,97745.06
2023-04-21T16:53:54.547Z,97744.78
2023-04-21T16:56:39.856Z,97736.84
2023-04-21T16:59:25.358Z,97746.22
2023-04-21T17:02:10.654Z,97743.44
2023-04-21T17:04:56.235Z,97719.72
2023-04-21T17:07:41.795Z,97743.38
2023-04-21T17:10:27.144Z,97745.88
2023-04-21T17:13:12.492Z,97741.03
2023-04-21T17:15:57.985Z,97696.44
2023-04-21T17:18:43.539Z,97737.50
2023-04-21T17:21:28.906Z,97732.22
2023-04-21T17:24:14.135Z,97702.25
2023-04-21T17:26:59.484Z,97731.63
2023-04-21T17:29:44.634Z,97733.31
2023-04-21T17:32:32.751Z,97734.47
2023-04-21T17:35:18.510Z,97718.44
2023-04-21T17:38:03.717Z,97733.09
2023-04-21T17:40:48.980Z,97731.75
2023-04-21T17:43:34.288Z,97728.28
2023-04-21T17:46:19.860Z,97723.91
2023-04-21T17:49:05.547Z,97711.00
2023-04-21T17:51:51.022Z,97731.38
2023-04-21T17:54:36.530Z,97716.44
2023-04-21T17:57:22.301Z,97729.75
2023-04-21T18:00:08.487Z,97729.75
2023-04-21T18:02:53.884Z,97727.22
2023-04-21T18:05:39.870Z,97721.84
2023-04-21T18:08:25.399Z,97712.81
2023-04-21T18:11:10.747Z,97739.38
2023-04-21T18:13:56.262Z,97702.63
2023-04-21T18:16:41.522Z,97732.22
2023-04-21T18:19:26.890Z,97731.25
2023-04-21T18:22:12.270Z,97733.44
2023-04-21T18:24:58.054Z,97742.44
2023-04-21T18:27:43.789Z,97733.91
2023-04-21T18:30:30.749Z,97716.59
2023-04-21T18:33:16.326Z,97732.31
2023-04-21T18:36:01.651Z,97757.44
2023-04-21T18:38:47.322Z,97748.69
2023-04-21T18:41:32.588Z,97724.34
2023-04-21T18:44:17.843Z,97754.63
2023-04-21T18:47:03.530Z,97744.56
2023-04-21T18:49:49.123Z,97776.25
2023-04-21T18:52:34.474Z,97785.66
2023-04-21T18:55:20.838Z,97722.28
2023-04-21T18:58:06.405Z,97723.91
2023-04-21T19:00:51.888Z,97793.50
2023-04-21T19:03:38.045Z,97800.22
2023-04-21T19:06:23.733Z,97794.59
2023-04-21T19:09:09.318Z,97790.81
2023-04-21T19:11:54.670Z,97792.56
2023-04-21T19:14:46.484Z,97783.72
2023-04-21T19:17:32.901Z,97798.13
2023-04-21T19:20:18.893Z,97804.03
2023-04-21T19:23:04.482Z,97763.16
2023-04-21T19:25:50.005Z,97802.50
2023-04-21T19:28:39.420Z,97800.22
2023-04-21T19:31:25.547Z,97811.19
2023-04-21T19:34:11.088Z,97811.25
2023-04-21T19:36:56.817Z,97772.34
2023-04-21T19:39:42.657Z,97788.63
2023-04-21T19:42:28.358Z,97735.69
2023-04-21T19:45:14.063Z,97813.00
2023-04-21T19:47:59.622Z,97814.56
2023-04-21T19:50:45.038Z,97811.84
2023-04-21T19:53:30.515Z,97807.75
2023-04-21T19:56:16.243Z,97797.88
2023-04-21T19:59:01.615Z,97808.09
2023-04-21T20:01:46.920Z,97802.66
2023-04-21T20:04:32.507Z,97806.09
2023-04-21T20:07:17.856Z,97810.53
2023-04-21T20:10:04.382Z,97804.63
2023-04-21T20:12:49.620Z,97794.25
2023-04-21T20:15:35.020Z,97796.47
2023-04-21T20:18:20.756Z,97798.00
2023-04-21T20:21:06.098Z,97793.13
2023-04-21T20:23:51.391Z,97798.41
2023-04-21T20:26:36.812Z,97801.66
2023-04-21T20:29:22.152Z,97811.94
2023-04-21T20:32:07.398Z,97804.69
2023-04-21T20:34:52.986Z,97815.25
2023-04-21T20:37:38.377Z,97768.63
2023-04-21T20:40:24.099Z,97812.91
2023-04-21T20:43:09.843Z,97811.22
2023-04-21T20:45:55.282Z,97810.00
2023-04-21T20:48:40.803Z,97818.56
2023-04-21T20:51:26.399Z,97772.69
2023-04-21T20:54:11.441Z,97820.66
2023-04-21T20:56:56.656Z,97820.47
2023-04-21T20:59:42.124Z,97810.91
2023-04-21T21:02:27.810Z,97827.56
2023-04-21T21:05:13.369Z,97817.88
2023-04-21T21:07:59.011Z,97828.47
2023-04-21T21:10:44.446Z,97829.25
2023-04-21T21:13:29.856Z,97828.66
2023-04-21T21:16:15.614Z,97842.41
2023-04-21T21:19:01.041Z,97828.19
2023-04-21T21:21:46.160Z,97772.94
2023-04-21T21:24:31.894Z,97850.13
2023-04-21T21:27:17.159Z,97850.31
2023-04-21T21:30:03.312Z,97824.53
2023-04-21T21:32:48.489Z,97865.38
2023-04-21T21:35:33.651Z,97864.16
2023-04-21T21:38:19.191Z,97795.13
2023-04-21T21:41:04.707Z,97861.72
2023-04-21T21:43:50.377Z,97832.09
2023-04-21T21:46:35.832Z,97840.03
2023-04-21T21:49:21.112Z,97855.28
2023-04-21T21:52:06.705Z,97852.22
2023-04-21T21:55:17.575Z,97852.63
2023-04-21T21:58:03.345Z,97852.81
2023-04-21T22:00:49.036Z,97792.72
2023-04-21T22:03:35.897Z,97860.91
2023-04-21T22:06:21.803Z,97860.09
2023-04-21T22:09:07.086Z,97859.84
2023-04-21T22:11:52.768Z,97849.47
2023-04-21T22:14:37.963Z,97847.91
2023-04-21T22:17:25.008Z,97832.06
2023-04-21T22:20:10.919Z,97833.44
2023-04-21T22:22:56.325Z,97804.38
2023-04-21T22:25:41.820Z,97820.66
2023-04-21T22:28:27.466Z,97821.88
2023-04-21T22:31:13.000Z,97840.59
2023-04-21T22:33:58.357Z,97820.44
2023-04-21T22:36:44.076Z,97814.13
2023-04-21T22:39:29.496Z,97813.75
2023-04-21T22:42:15.119Z,97776.59
2023-04-21T22:45:00.590Z,97819.06
2023-04-21T22:47:45.847Z,97814.41
2023-04-21T22:50:31.309Z,97817.88
2023-04-21T22:53:16.900Z,97815.25
2023-04-21T22:56:03.061Z,97747.03
2023-04-21T22:58:48.710Z,97814.44
2023-04-21T23:01:33.829Z,97818.31
2023-04-21T23:04:19.335Z,97811.41
2023-04-21T23:07:04.839Z,97810.41
2023-04-21T23:09:50.067Z,97778.09
2023-04-21T23:12:35.341Z,97794.34
2023-04-21T23:15:20.807Z,97793.53
2023-04-21T23:18:06.459Z,97790.47
2023-04-21T23:20:52.558Z,97796.56
2023-04-21T23:23:37.562Z,97792.41
2023-04-21T23:26:23.201Z,97751.88
2023-04-21T23:29:08.370Z,97792.50
2023-04-21T23:31:54.110Z,97792.91
2023-04-21T23:34:39.652Z,97809.06
2023-04-21T23:37:25.065Z,97791.97
2023-04-21T23:40:11.115Z,97794.78
2023-04-21T23:42:56.667Z,97800.00
2023-04-21T23:45:42.303Z,97781.25
2023-04-21T23:48:27.491Z,97798.13
2023-04-21T23:51:12.964Z,97801.19
2023-04-21T23:53:58.316Z,97771.81
2023-04-21T23:56:43.762Z,97798.94
2023-04-21T23:59:29.286Z,97799.22
